Time;durP1;ratioP1;P1;durP2;ratioP2;P2;SDS_P1;SDS_P2;PMS_P1;PMS_P2;Temp;Humidity;BMP_temperature;BMP_pressure;BME280_temperature;BME280_humidity;BME280_pressure;Samples;Min_cycle;Max_cycle;Signal;HPM_P1;HPM_P2
2023/04/17 00:01:41;;;;;;;;;;;13.00;99.90;;;;;;4813720;29;19946;-61
2023/04/17 00:04:09;;;;;;;;;;;12.90;99.90;;;;;;4808119;29;19932;-62
2023/04/17 00:06:38;;;;;;;;;;;12.80;99.90;;;;;;4814424;29;19943;-62
2023/04/17 00:09:04;;;;;;;;;;;12.70;99.90;;;;;;4806436;29;20069;-63
2023/04/17 00:11:30;;;;;;;;;;;12.60;99.90;;;;;;4810225;29;19947;-64
2023/04/17 00:13:56;;;;;;;;;;;12.60;99.90;;;;;;4807458;29;19948;-63
2023/04/17 00:16:21;;;;;;;;;;;12.60;99.90;;;;;;4810121;29;19933;-63
2023/04/17 00:18:48;;;;;;;;;;;12.60;99.90;;;;;;4812408;29;20413;-63
2023/04/17 00:21:14;;;;;;;;;;;12.60;99.90;;;;;;4810260;29;20015;-63
2023/04/17 00:23:40;;;;;;;;;;;12.60;99.90;;;;;;4813586;29;19964;-63
2023/04/17 00:26:05;;;;;;;;;;;12.60;99.90;;;;;;4808677;29;19949;-63
2023/04/17 00:28:31;;;;;;;;;;;12.60;99.90;;;;;;4791383;29;19912;-62
2023/04/17 00:30:57;;;;;;;;;;;12.60;99.90;;;;;;4812605;29;19932;-63
2023/04/17 00:33:23;;;;;;;;;;;12.60;99.90;;;;;;4811051;29;20419;-63
2023/04/17 00:35:48;;;;;;;;;;;12.70;99.90;;;;;;4814363;29;20021;-61
2023/04/17 00:38:14;;;;;;;;;;;12.70;99.90;;;;;;4820080;29;19939;-61
2023/04/17 00:40:40;;;;;;;;;;;12.70;99.90;;;;;;4811129;29;19956;-61
2023/04/17 00:43:06;;;;;;;;;;;12.70;99.90;;;;;;4804314;29;20059;-61
2023/04/17 00:45:32;;;;;;;;;;;12.70;99.90;;;;;;4812283;29;19928;-61
2023/04/17 00:47:59;;;;;;;;;;;12.70;99.90;;;;;;4810586;29;21012;-62
2023/04/17 00:50:26;;;;;;;;;;;12.70;99.90;;;;;;4810420;29;19920;-62
2023/04/17 00:52:51;;;;;;;;;;;12.60;99.90;;;;;;4806506;29;19983;-62
2023/04/17 00:55:17;;;;;;;;;;;12.50;99.90;;;;;;4810329;29;19928;-62
2023/04/17 00:57:43;;;;;;;;;;;12.40;99.90;;;;;;4801298;29;19936;-62
2023/04/17 01:00:10;;;;;;;;;;;12.40;99.90;;;;;;4804150;29;19949;-61
2023/04/17 01:02:36;;;;;;;;;;;12.40;99.90;;;;;;4809990;29;20077;-61
2023/04/17 01:05:02;;;;;;;;;;;12.40;99.90;;;;;;4815786;29;19928;-61
2023/04/17 01:07:29;;;;;;;;;;;12.50;99.90;;;;;;4811324;29;19923;-61
2023/04/17 01:09:54;;;;;;;;;;;12.50;99.90;;;;;;4809612;29;20205;-62
2023/04/17 01:12:21;;;;;;;;;;;12.50;99.90;;;;;;4803118;29;20551;-62
2023/04/17 01:14:54;;;;;;;;;;;12.50;99.90;;;;;;4822499;29;20483;-62
2023/04/17 01:17:20;;;;;;;;;;;12.50;99.90;;;;;;4819640;29;19935;-61
2023/04/17 01:19:46;;;;;;;;;;;12.40;99.90;;;;;;4819669;29;19920;-61
2023/04/17 01:22:13;;;;;;;;;;;12.40;99.90;;;;;;4813972;29;20451;-61
2023/04/17 01:24:38;;;;;;;;;;;12.40;99.90;;;;;;4824172;29;20498;-61
2023/04/17 01:27:05;;;;;;;;;;;12.40;99.90;;;;;;4816922;29;19946;-62
2023/04/17 01:29:31;;;;;;;;;;;12.50;99.90;;;;;;4817915;29;19927;-61
2023/04/17 01:31:56;;;;;;;;;;;12.50;99.90;;;;;;4819315;29;20153;-62
2023/04/17 01:34:22;;;;;;;;;;;12.50;99.90;;;;;;4825922;29;20296;-61
2023/04/17 01:36:47;;;;;;;;;;;12.40;99.90;;;;;;4826039;29;20693;-61
2023/04/17 01:39:13;;;;;;;;;;;12.40;99.90;;;;;;4824593;29;19947;-61
2023/04/17 01:41:38;;;;;;;;;;;12.40;99.90;;;;;;4818106;29;20434;-61
2023/04/17 01:44:04;;;;;;;;;;;12.40;99.90;;;;;;4833269;29;20403;-62
2023/04/17 01:46:30;;;;;;;;;;;12.30;99.90;;;;;;4834019;29;21927;-61
2023/04/17 01:48:55;;;;;;;;;;;12.20;99.90;;;;;;4822683;29;19962;-62
2023/04/17 01:51:21;;;;;;;;;;;12.30;99.90;;;;;;4822060;29;19981;-62
2023/04/17 01:53:46;;;;;;;;;;;12.20;99.90;;;;;;4829153;29;19964;-62
2023/04/17 01:56:12;;;;;;;;;;;12.20;99.90;;;;;;4834729;29;19942;-63
2023/04/17 01:58:38;;;;;;;;;;;12.20;99.90;;;;;;4809291;29;21208;-63
2023/04/17 02:01:04;;;;;;;;;;;12.20;99.90;;;;;;4814961;29;20141;-63
2023/04/17 02:03:30;;;;;;;;;;;12.20;99.90;;;;;;4813240;29;20740;-63
2023/04/17 02:05:56;;;;;;;;;;;12.20;99.90;;;;;;4822518;29;20023;-63
2023/04/17 02:08:21;;;;;;;;;;;12.20;99.90;;;;;;4819671;29;19992;-63
2023/04/17 02:10:47;;;;;;;;;;;12.10;99.90;;;;;;4822704;29;20697;-64
2023/04/17 02:13:13;;;;;;;;;;;12.10;99.90;;;;;;4815553;29;19946;-63
2023/04/17 02:15:38;;;;;;;;;;;12.10;99.90;;;;;;4817920;29;21738;-62
2023/04/17 02:18:07;;;;;;;;;;;12.10;99.90;;;;;;4802509;29;20239;-62
2023/04/17 02:20:33;;;;;;;;;;;12.10;99.90;;;;;;4826294;29;20200;-62
2023/04/17 02:22:59;;;;;;;;;;;12.10;99.90;;;;;;4830523;29;19943;-62
2023/04/17 02:25:25;;;;;;;;;;;12.10;99.90;;;;;;4813583;29;20028;-62
2023/04/17 02:27:51;;;;;;;;;;;12.20;99.90;;;;;;4817846;29;19983;-62
2023/04/17 02:30:16;;;;;;;;;;;12.10;99.90;;;;;;4828927;29;19948;-62
2023/04/17 02:32:43;;;;;;;;;;;12.10;99.90;;;;;;4835931;29;20443;-62
2023/04/17 02:35:09;;;;;;;;;;;12.20;99.90;;;;;;4835589;29;19949;-62
2023/04/17 02:37:35;;;;;;;;;;;12.30;99.90;;;;;;4836461;29;19953;-62
2023/04/17 02:40:00;;;;;;;;;;;12.30;99.90;;;;;;4826991;29;21144;-62
2023/04/17 02:42:26;;;;;;;;;;;12.30;99.90;;;;;;4819782;29;19976;-62
2023/04/17 02:44:52;;;;;;;;;;;12.30;99.90;;;;;;4825209;29;20042;-62
2023/04/17 02:47:18;;;;;;;;;;;12.20;99.90;;;;;;4822340;29;20471;-62
2023/04/17 02:49:44;;;;;;;;;;;12.20;99.90;;;;;;4816788;29;20415;-63
2023/04/17 02:52:09;;;;;;;;;;;12.20;99.90;;;;;;4823417;29;19941;-62
2023/04/17 02:54:35;;;;;;;;;;;12.20;99.90;;;;;;4818810;29;19963;-62
2023/04/17 02:57:01;;;;;;;;;;;12.20;99.90;;;;;;4826882;29;20421;-62
2023/04/17 02:59:26;;;;;;;;;;;12.20;99.90;;;;;;4819535;29;20243;-61
2023/04/17 03:01:52;;;;;;;;;;;12.30;99.90;;;;;;4820036;29;19924;-62
2023/04/17 03:04:18;;;;;;;;;;;12.30;99.90;;;;;;4823962;29;19968;-62
2023/04/17 03:06:43;;;;;;;;;;;12.40;99.90;;;;;;4820821;29;19943;-62
2023/04/17 03:09:13;;;;;;;;;;;12.40;99.90;;;;;;4821281;29;19942;-62
2023/04/17 03:11:39;;;;;;;;;;;12.40;99.90;;;;;;4818381;29;19953;-62
2023/04/17 03:14:05;;;;;;;;;;;12.50;99.90;;;;;;4820600;29;19946;-62
2023/04/17 03:16:30;;;;;;;;;;;12.60;99.90;;;;;;4819349;29;19947;-62
2023/04/17 03:18:56;;;;;;;;;;;12.60;99.90;;;;;;4821825;29;19944;-62
2023/04/17 03:21:21;;;;;;;;;;;12.60;99.90;;;;;;4820692;29;19984;-62
2023/04/17 03:23:47;;;;;;;;;;;12.60;99.90;;;;;;4816924;29;20347;-62
2023/04/17 03:26:13;;;;;;;;;;;12.60;99.90;;;;;;4810902;29;20450;-62
2023/04/17 03:28:38;;;;;;;;;;;12.60;99.90;;;;;;4818908;29;20350;-62
2023/04/17 03:31:05;;;;;;;;;;;12.60;99.90;;;;;;4809012;29;19919;-63
2023/04/17 03:33:30;;;;;;;;;;;12.60;99.90;;;;;;4822541;29;20051;-63
2023/04/17 03:35:56;;;;;;;;;;;12.60;99.90;;;;;;4825575;29;20060;-64
2023/04/17 03:38:21;;;;;;;;;;;12.50;99.90;;;;;;4822070;29;21731;-63
2023/04/17 03:40:47;;;;;;;;;;;12.20;99.90;;;;;;4813172;29;20018;-63
2023/04/17 03:43:13;;;;;;;;;;;11.90;99.90;;;;;;4815428;29;19943;-63
2023/04/17 03:45:38;;;;;;;;;;;11.70;99.90;;;;;;4817927;29;20062;-63
2023/04/17 03:48:04;;;;;;;;;;;11.50;99.90;;;;;;4803638;29;20099;-63
2023/04/17 03:50:30;;;;;;;;;;;11.40;99.90;;;;;;4823383;29;20421;-62
2023/04/17 03:52:56;;;;;;;;;;;11.30;99.90;;;;;;4821111;29;20057;-62
2023/04/17 03:55:21;;;;;;;;;;;11.20;99.90;;;;;;4804366;29;19941;-62
2023/04/17 03:57:48;;;;;;;;;;;11.10;99.90;;;;;;4806470;29;19984;-62
2023/04/17 04:00:15;;;;;;;;;;;11.20;99.90;;;;;;4820884;29;19943;-62
2023/04/17 04:02:40;;;;;;;;;;;11.10;99.90;;;;;;4811706;29;20421;-62
2023/04/17 04:05:06;;;;;;;;;;;11.10;99.90;;;;;;4820478;29;19970;-62
2023/04/17 04:07:32;;;;;;;;;;;11.10;99.90;;;;;;4825186;29;20056;-61
2023/04/17 04:09:57;;;;;;;;;;;11.10;99.90;;;;;;4812172;29;19955;-61
2023/04/17 04:12:23;;;;;;;;;;;11.10;99.90;;;;;;4816661;29;20351;-62
2023/04/17 04:14:49;;;;;;;;;;;11.10;99.90;;;;;;4823702;29;19939;-61
2023/04/17 04:17:14;;;;;;;;;;;11.10;99.90;;;;;;4816320;29;19956;-62
2023/04/17 04:19:41;;;;;;;;;;;11.10;99.90;;;;;;4827505;29;20608;-61
2023/04/17 04:22:07;;;;;;;;;;;11.00;99.90;;;;;;4818611;29;20080;-61
2023/04/17 04:24:32;;;;;;;;;;;10.90;99.90;;;;;;4821047;29;20367;-61
2023/04/17 04:27:04;;;;;;;;;;;11.00;99.90;;;;;;4816342;29;20004;-62
2023/04/17 04:29:30;;;;;;;;;;;11.00;99.90;;;;;;4812769;29;19950;-62
2023/04/17 04:31:55;;;;;;;;;;;11.10;99.90;;;;;;4815889;29;19927;-61
2023/04/17 04:34:24;;;;;;;;;;;11.10;99.90;;;;;;4820594;29;19924;-61
2023/04/17 04:36:49;;;;;;;;;;;11.20;99.90;;;;;;4815727;29;20418;-62
2023/04/17 04:39:19;;;;;;;;;;;11.30;99.90;;;;;;4815741;29;19916;-61
2023/04/17 04:41:51;;;;;;;;;;;11.30;99.90;;;;;;4814308;29;19951;-62
2023/04/17 04:44:17;;;;;;;;;;;11.30;99.90;;;;;;4824038;29;20039;-61
2023/04/17 04:46:43;;;;;;;;;;;11.30;99.90;;;;;;4817693;29;19912;-62
2023/04/17 04:49:08;;;;;;;;;;;11.30;99.90;;;;;;4817119;29;19935;-62
2023/04/17 04:51:34;;;;;;;;;;;11.30;99.90;;;;;;4812366;29;20074;-61
2023/04/17 04:54:01;;;;;;;;;;;11.30;99.90;;;;;;4802470;29;19927;-61
2023/04/17 04:56:27;;;;;;;;;;;11.30;99.90;;;;;;4806040;29;21544;-61
2023/04/17 04:58:52;;;;;;;;;;;11.40;99.90;;;;;;4814003;29;19927;-62
2023/04/17 05:01:18;;;;;;;;;;;11.50;99.90;;;;;;4809377;29;19920;-62
2023/04/17 05:03:44;;;;;;;;;;;11.60;99.90;;;;;;4807761;29;19927;-61
2023/04/17 05:06:10;;;;;;;;;;;11.70;99.90;;;;;;4786393;29;19928;-61
2023/04/17 05:08:36;;;;;;;;;;;11.80;99.90;;;;;;4785888;29;20212;-61
2023/04/17 05:11:01;;;;;;;;;;;11.90;99.90;;;;;;4813722;29;19926;-61
2023/04/17 05:13:29;;;;;;;;;;;12.00;99.90;;;;;;4812962;29;20769;-61
2023/04/17 05:15:54;;;;;;;;;;;12.00;99.90;;;;;;4814245;29;19959;-61
2023/04/17 05:18:20;;;;;;;;;;;12.10;99.90;;;;;;4812980;29;19926;-62
2023/04/17 05:20:46;;;;;;;;;;;12.10;99.90;;;;;;4817652;29;20311;-62
2023/04/17 05:23:11;;;;;;;;;;;12.20;99.90;;;;;;4815033;29;19942;-61
2023/04/17 05:25:37;;;;;;;;;;;12.30;99.90;;;;;;4811169;29;19928;-63
2023/04/17 05:28:02;;;;;;;;;;;12.40;99.90;;;;;;4819372;29;19924;-62
2023/04/17 05:30:28;;;;;;;;;;;12.40;99.90;;;;;;4816800;29;19916;-62
2023/04/17 05:32:53;;;;;;;;;;;12.50;99.90;;;;;;4813083;29;19920;-61
2023/04/17 05:35:19;;;;;;;;;;;12.50;99.90;;;;;;4819668;29;19923;-62
2023/04/17 05:37:45;;;;;;;;;;;12.60;99.90;;;;;;4825578;29;19936;-64
2023/04/17 05:40:11;;;;;;;;;;;12.70;99.90;;;;;;4823674;29;19916;-63
2023/04/17 05:42:36;;;;;;;;;;;12.80;99.90;;;;;;4826232;29;19920;-64
2023/04/17 05:45:02;;;;;;;;;;;12.90;99.90;;;;;;4819813;29;19932;-63
2023/04/17 05:47:27;;;;;;;;;;;13.00;99.90;;;;;;4825870;29;20002;-63
2023/04/17 05:49:57;;;;;;;;;;;13.00;99.90;;;;;;4825489;29;19931;-63
2023/04/17 05:52:23;;;;;;;;;;;13.10;99.90;;;;;;4832970;29;19927;-63
2023/04/17 05:54:49;;;;;;;;;;;13.20;99.90;;;;;;4827932;29;19928;-63
2023/04/17 05:57:15;;;;;;;;;;;13.20;99.90;;;;;;4826834;29;20030;-63
2023/04/17 05:59:42;;;;;;;;;;;13.30;99.90;;;;;;4820700;29;19929;-63
2023/04/17 06:02:07;;;;;;;;;;;13.40;99.90;;;;;;4822234;29;20299;-63
2023/04/17 06:04:33;;;;;;;;;;;13.40;99.90;;;;;;4827020;29;20514;-63
2023/04/17 06:06:58;;;;;;;;;;;13.50;99.90;;;;;;4809323;29;22162;-63
2023/04/17 06:09:25;;;;;;;;;;;13.50;99.90;;;;;;4820188;29;19974;-63
2023/04/17 06:11:50;;;;;;;;;;;13.60;99.90;;;;;;4822474;29;19920;-63
2023/04/17 06:14:16;;;;;;;;;;;13.60;99.90;;;;;;4828969;29;20376;-63
2023/04/17 06:16:41;;;;;;;;;;;13.70;99.90;;;;;;4819412;29;19927;-63
2023/04/17 06:19:07;;;;;;;;;;;13.70;99.90;;;;;;4824827;29;19920;-63
2023/04/17 06:21:33;;;;;;;;;;;13.70;99.90;;;;;;4824306;29;19912;-63
2023/04/17 06:23:59;;;;;;;;;;;13.80;99.90;;;;;;4805256;29;20985;-63
2023/04/17 06:26:24;;;;;;;;;;;13.80;99.90;;;;;;4824373;29;19999;-63
2023/04/17 06:28:50;;;;;;;;;;;13.80;99.90;;;;;;4819451;29;19923;-63
2023/04/17 06:31:15;;;;;;;;;;;13.90;99.90;;;;;;4819595;29;20102;-63
2023/04/17 06:33:42;;;;;;;;;;;13.90;99.90;;;;;;4817653;29;20918;-63
2023/04/17 06:36:08;;;;;;;;;;;13.90;99.90;;;;;;4825618;29;19920;-63
2023/04/17 06:38:33;;;;;;;;;;;14.00;99.90;;;;;;4822485;29;19938;-63
2023/04/17 06:40:59;;;;;;;;;;;14.00;99.90;;;;;;4817646;29;20696;-64
2023/04/17 06:43:24;;;;;;;;;;;14.10;99.90;;;;;;4823813;29;21252;-63
2023/04/17 06:45:50;;;;;;;;;;;14.30;99.90;;;;;;4824467;29;19928;-63
2023/04/17 06:48:15;;;;;;;;;;;14.30;99.90;;;;;;4824894;29;19928;-64
2023/04/17 06:50:41;;;;;;;;;;;14.40;99.90;;;;;;4826333;29;20572;-64
2023/04/17 06:53:07;;;;;;;;;;;14.60;99.90;;;;;;4826583;29;19920;-65
2023/04/17 06:55:32;;;;;;;;;;;14.60;99.90;;;;;;4809102;29;21455;-63
2023/04/17 06:57:58;;;;;;;;;;;14.60;99.90;;;;;;4825842;29;19919;-63
2023/04/17 07:00:23;;;;;;;;;;;14.60;99.90;;;;;;4821425;29;20089;-63
2023/04/17 07:02:49;;;;;;;;;;;14.60;99.90;;;;;;4825466;29;19916;-63
2023/04/17 07:05:15;;;;;;;;;;;14.60;99.90;;;;;;4826598;29;19927;-63
2023/04/17 07:07:41;;;;;;;;;;;14.70;99.90;;;;;;4836797;29;19912;-63
2023/04/17 07:10:06;;;;;;;;;;;14.80;99.90;;;;;;4828407;29;20735;-63
2023/04/17 07:12:32;;;;;;;;;;;14.80;99.90;;;;;;4824145;29;19952;-62
2023/04/17 07:14:57;;;;;;;;;;;14.80;99.90;;;;;;4836242;29;20035;-63
2023/04/17 07:17:23;;;;;;;;;;;14.80;99.90;;;;;;4839188;29;20380;-64
2023/04/17 07:19:49;;;;;;;;;;;14.80;99.90;;;;;;4825412;29;19998;-64
2023/04/17 07:22:14;;;;;;;;;;;14.80;99.90;;;;;;4831557;29;19966;-63
2023/04/17 07:24:40;;;;;;;;;;;14.90;99.90;;;;;;4832624;29;20429;-63
2023/04/17 07:27:06;;;;;;;;;;;14.90;99.90;;;;;;4824364;29;20010;-63
2023/04/17 07:29:31;;;;;;;;;;;15.00;99.90;;;;;;4813941;29;20533;-63
2023/04/17 07:31:57;;;;;;;;;;;15.10;99.90;;;;;;4832268;29;19951;-64
2023/04/17 07:34:24;;;;;;;;;;;15.10;99.90;;;;;;4827493;29;19916;-64
2023/04/17 07:36:50;;;;;;;;;;;15.30;99.90;;;;;;4836234;29;19927;-64
2023/04/17 07:39:16;;;;;;;;;;;15.40;99.90;;;;;;4828470;29;19916;-64
2023/04/17 07:41:41;;;;;;;;;;;15.60;99.90;;;;;;4826872;29;19926;-64
2023/04/17 07:44:07;;;;;;;;;;;15.70;99.90;;;;;;4829912;29;19930;-68
2023/04/17 07:46:32;;;;;;;;;;;15.70;99.90;;;;;;4808454;29;19920;-63
2023/04/17 07:48:58;;;;;;;;;;;15.80;99.90;;;;;;4830912;29;19938;-64
2023/04/17 07:51:23;;;;;;;;;;;16.00;99.90;;;;;;4838432;29;19920;-64
2023/04/17 07:53:49;;;;;;;;;;;16.00;99.90;;;;;;4835962;29;19916;-63
2023/04/17 07:56:16;;;;;;;;;;;16.10;99.90;;;;;;4842092;29;19912;-64
2023/04/17 07:58:43;;;;;;;;;;;16.10;99.90;;;;;;4835339;29;20018;-64
2023/04/17 08:01:09;;;;;;;;;;;16.20;99.90;;;;;;4831460;29;20397;-64
2023/04/17 08:03:35;;;;;;;;;;;16.30;99.90;;;;;;4831971;29;19954;-64
2023/04/17 08:06:00;;;;;;;;;;;16.30;99.90;;;;;;4841293;29;19979;-64
2023/04/17 08:08:26;;;;;;;;;;;16.20;99.90;;;;;;4840108;29;19939;-63
2023/04/17 08:10:52;;;;;;;;;;;16.20;99.90;;;;;;4829635;29;23249;-64
2023/04/17 08:13:17;;;;;;;;;;;16.20;99.90;;;;;;4831683;29;23622;-64
2023/04/17 08:15:44;;;;;;;;;;;16.30;99.90;;;;;;4832690;29;19999;-64
2023/04/17 08:18:10;;;;;;;;;;;16.40;99.90;;;;;;4836182;29;19928;-63
2023/04/17 08:20:35;;;;;;;;;;;16.40;99.90;;;;;;4839270;29;19916;-63
2023/04/17 08:23:01;;;;;;;;;;;16.40;99.90;;;;;;4835372;29;20488;-63
2023/04/17 08:25:27;;;;;;;;;;;16.50;99.90;;;;;;4836139;29;19928;-63
2023/04/17 08:27:52;;;;;;;;;;;16.50;99.90;;;;;;4836177;29;20067;-63
2023/04/17 08:30:19;;;;;;;;;;;16.50;99.90;;;;;;4834484;29;20029;-63
2023/04/17 08:32:45;;;;;;;;;;;16.50;99.90;;;;;;4838412;29;19920;-63
2023/04/17 08:35:12;;;;;;;;;;;16.40;99.90;;;;;;4841366;29;20435;-62
2023/04/17 08:37:38;;;;;;;;;;;16.40;99.90;;;;;;4834222;29;20007;-63
2023/04/17 08:40:05;;;;;;;;;;;16.50;99.90;;;;;;4836472;29;20006;-63
2023/04/17 08:42:33;;;;;;;;;;;16.60;99.90;;;;;;4837013;29;20293;-62
2023/04/17 08:45:00;;;;;;;;;;;16.80;99.90;;;;;;4837107;29;19923;-63
2023/04/17 08:47:27;;;;;;;;;;;16.90;99.90;;;;;;4836329;29;20306;-62
2023/04/17 08:49:54;;;;;;;;;;;17.00;99.90;;;;;;4832952;29;19937;-62
2023/04/17 08:52:20;;;;;;;;;;;17.10;99.90;;;;;;4839440;29;20336;-63
2023/04/17 08:54:46;;;;;;;;;;;17.20;99.90;;;;;;4836337;29;19969;-62
2023/04/17 08:57:12;;;;;;;;;;;17.30;99.90;;;;;;4841277;29;19924;-63
2023/04/17 08:59:37;;;;;;;;;;;17.50;99.90;;;;;;4838476;29;19916;-62
2023/04/17 09:02:04;;;;;;;;;;;17.60;99.90;;;;;;4835889;29;19923;-63
2023/04/17 09:04:40;;;;;;;;;;;17.70;99.90;;;;;;4837323;29;20511;-63
2023/04/17 09:07:07;;;;;;;;;;;17.70;99.90;;;;;;4839159;29;20023;-62
2023/04/17 09:09:59;;;;;;;;;;;17.80;99.90;;;;;;4837918;29;19943;-63
2023/04/17 09:12:25;;;;;;;;;;;17.70;99.90;;;;;;4831907;29;19943;-62
2023/04/17 09:14:51;;;;;;;;;;;17.60;99.90;;;;;;4824899;29;20018;-63
2023/04/17 09:17:17;;;;;;;;;;;17.60;99.90;;;;;;4837473;29;19912;-63
2023/04/17 09:20:03;;;;;;;;;;;17.50;99.90;;;;;;4838644;29;19916;-63
2023/04/17 09:22:28;;;;;;;;;;;17.60;99.90;;;;;;4836126;29;19916;-63
2023/04/17 09:24:54;;;;;;;;;;;17.60;99.90;;;;;;4834401;29;19935;-63
2023/04/17 09:27:23;;;;;;;;;;;17.50;99.90;;;;;;4834672;29;19951;-63
2023/04/17 09:30:02;;;;;;;;;;;17.60;99.90;;;;;;4833110;29;20022;-63
2023/04/17 09:32:29;;;;;;;;;;;17.50;99.90;;;;;;4833913;29;20086;-63
2023/04/17 09:34:56;;;;;;;;;;;17.40;99.90;;;;;;4829914;29;19948;-63
2023/04/17 09:37:22;;;;;;;;;;;17.40;99.90;;;;;;4838569;29;19920;-63
2023/04/17 09:39:58;;;;;;;;;;;17.40;99.90;;;;;;4818532;29;19920;-64
2023/04/17 09:42:24;;;;;;;;;;;17.40;99.90;;;;;;4840660;29;19978;-64
2023/04/17 09:44:49;;;;;;;;;;;17.50;99.90;;;;;;4833446;29;20429;-64
2023/04/17 09:47:16;;;;;;;;;;;17.60;99.90;;;;;;4837159;29;20414;-63
2023/04/17 09:49:48;;;;;;;;;;;17.70;99.90;;;;;;4833097;29;19991;-63
2023/04/17 09:52:13;;;;;;;;;;;17.80;99.90;;;;;;4834174;29;19924;-64
2023/04/17 09:54:40;;;;;;;;;;;17.80;99.90;;;;;;4832968;29;20051;-63
2023/04/17 09:57:07;;;;;;;;;;;17.90;99.90;;;;;;4825589;29;20291;-63
2023/04/17 09:59:47;;;;;;;;;;;18.00;99.90;;;;;;4837630;29;20564;-63
2023/04/17 10:02:13;;;;;;;;;;;18.10;99.90;;;;;;4835150;29;20381;-63
2023/04/17 10:04:42;;;;;;;;;;;18.30;99.90;;;;;;4839036;29;20399;-63
2023/04/17 10:07:08;;;;;;;;;;;18.30;99.90;;;;;;4837342;29;19959;-63
2023/04/17 10:09:33;;;;;;;;;;;18.30;99.90;;;;;;4838989;29;20156;-64
2023/04/17 10:12:00;;;;;;;;;;;18.20;99.90;;;;;;4838235;29;19924;-63
2023/04/17 10:14:29;;;;;;;;;;;18.20;99.90;;;;;;4832044;29;19983;-63
2023/04/17 10:16:54;;;;;;;;;;;18.20;98.10;;;;;;4832610;29;19916;-63
2023/04/17 10:19:23;;;;;;;;;;;17.90;97.70;;;;;;4829981;29;20432;-63
2023/04/17 10:22:08;;;;;;;;;;;17.70;98.70;;;;;;4819276;29;19916;-63
2023/04/17 10:24:34;;;;;;;;;;;17.60;98.90;;;;;;4835433;29;19919;-63
2023/04/17 10:27:00;;;;;;;;;;;17.50;99.30;;;;;;4835802;29;19930;-63
2023/04/17 10:30:03;;;;;;;;;;;17.50;99.80;;;;;;4840670;29;19936;-63
2023/04/17 10:32:30;;;;;;;;;;;17.50;99.80;;;;;;4769467;29;19925;-65
2023/04/17 10:34:59;;;;;;;;;;;17.50;99.40;;;;;;4770626;29;20547;-65
2023/04/17 10:37:43;;;;;;;;;;;17.40;99.10;;;;;;4803029;29;19916;-65
2023/04/17 10:40:10;;;;;;;;;;;17.40;99.10;;;;;;4841562;29;19939;-65
2023/04/17 10:42:35;;;;;;;;;;;17.30;99.50;;;;;;4842355;29;20015;-65
2023/04/17 10:45:04;;;;;;;;;;;17.30;99.30;;;;;;4843672;29;19927;-64
2023/04/17 10:47:31;;;;;;;;;;;17.30;99.70;;;;;;4840042;29;19924;-64
2023/04/17 10:50:00;;;;;;;;;;;17.40;99.90;;;;;;4835336;29;19924;-65
2023/04/17 10:52:31;;;;;;;;;;;17.40;99.70;;;;;;4836617;29;19923;-64
2023/04/17 10:55:04;;;;;;;;;;;17.40;99.90;;;;;;4833620;29;19955;-65
2023/04/17 10:58:03;;;;;;;;;;;17.50;99.90;;;;;;4835325;29;19946;-64
2023/04/17 11:00:33;;;;;;;;;;;17.50;99.90;;;;;;4797246;29;19928;-65
2023/04/17 11:02:59;;;;;;;;;;;17.60;99.90;;;;;;4831128;29;20380;-62
2023/04/17 11:05:25;;;;;;;;;;;17.60;99.90;;;;;;4830323;29;19935;-62
2023/04/17 11:07:51;;;;;;;;;;;17.60;99.90;;;;;;4835791;29;19912;-62
2023/04/17 11:10:20;;;;;;;;;;;17.50;99.90;;;;;;4837840;29;20052;-62
2023/04/17 11:12:47;;;;;;;;;;;17.60;99.90;;;;;;4830599;29;19972;-62
2023/04/17 11:15:12;;;;;;;;;;;17.70;99.90;;;;;;4828683;29;19927;-62
2023/04/17 11:17:40;;;;;;;;;;;17.80;99.90;;;;;;4834306;29;19936;-65
2023/04/17 11:20:06;;;;;;;;;;;17.80;99.90;;;;;;4833179;29;19923;-65
2023/04/17 11:22:32;;;;;;;;;;;17.80;99.90;;;;;;4831867;29;20475;-65
2023/04/17 11:24:58;;;;;;;;;;;17.80;99.90;;;;;;4828455;29;19924;-62
2023/04/17 11:27:23;;;;;;;;;;;17.80;99.20;;;;;;4818997;29;19927;-64
2023/04/17 11:29:49;;;;;;;;;;;17.90;99.10;;;;;;4821460;29;19916;-64
2023/04/17 11:32:15;;;;;;;;;;;17.90;98.10;;;;;;4831610;29;20385;-64
2023/04/17 11:34:40;;;;;;;;;;;17.80;96.90;;;;;;4832895;29;20352;-65
2023/04/17 11:37:06;;;;;;;;;;;17.80;98.40;;;;;;4834758;29;19924;-64
2023/04/17 11:39:32;;;;;;;;;;;17.90;98.40;;;;;;4836623;29;19976;-64
2023/04/17 11:41:58;;;;;;;;;;;17.90;97.90;;;;;;4836575;29;19920;-64
2023/04/17 11:44:24;;;;;;;;;;;17.90;98.40;;;;;;4831093;29;20437;-65
2023/04/17 11:46:53;;;;;;;;;;;17.90;98.20;;;;;;4829227;29;20043;-66
2023/04/17 11:49:29;;;;;;;;;;;17.90;98.10;;;;;;4840550;29;19928;-65
2023/04/17 11:51:55;;;;;;;;;;;17.90;96.20;;;;;;4827310;29;19920;-66
2023/04/17 11:54:25;;;;;;;;;;;17.90;98.90;;;;;;4838918;29;19921;-65
2023/04/17 11:57:00;;;;;;;;;;;18.00;97.00;;;;;;4831816;29;20363;-64
2023/04/17 11:59:30;;;;;;;;;;;18.10;99.90;;;;;;4833396;29;19916;-64
2023/04/17 12:01:55;;;;;;;;;;;18.20;99.00;;;;;;4832727;29;21001;-65
2023/04/17 12:04:21;;;;;;;;;;;18.20;99.20;;;;;;4835332;29;19919;-65
2023/04/17 12:06:47;;;;;;;;;;;18.20;98.20;;;;;;4835581;29;19920;-64
2023/04/17 12:09:25;;;;;;;;;;;18.20;99.60;;;;;;4835504;29;19916;-65
2023/04/17 12:11:52;;;;;;;;;;;18.30;99.90;;;;;;4837145;29;19952;-65
2023/04/17 12:14:17;;;;;;;;;;;18.20;99.60;;;;;;4830076;29;20602;-64
2023/04/17 12:16:46;;;;;;;;;;;18.20;98.80;;;;;;4839888;29;20011;-65
2023/04/17 12:19:15;;;;;;;;;;;18.30;98.90;;;;;;4827850;29;19920;-64
2023/04/17 12:21:40;;;;;;;;;;;18.30;98.60;;;;;;4836337;29;19916;-64
2023/04/17 12:24:06;;;;;;;;;;;18.30;97.20;;;;;;4835336;29;19962;-62
2023/04/17 12:26:31;;;;;;;;;;;18.40;97.40;;;;;;4838578;29;20351;-65
2023/04/17 12:28:57;;;;;;;;;;;18.50;98.10;;;;;;4834363;29;19938;-65
2023/04/17 12:31:23;;;;;;;;;;;18.70;99.50;;;;;;4843829;29;19994;-66
2023/04/17 12:33:48;;;;;;;;;;;18.90;99.90;;;;;;4831908;29;19916;-66
2023/04/17 12:36:14;;;;;;;;;;;19.10;99.90;;;;;;4843878;29;19912;-66
2023/04/17 12:38:41;;;;;;;;;;;19.30;97.80;;;;;;4836315;29;19979;-65
2023/04/17 12:41:08;;;;;;;;;;;19.50;96.50;;;;;;4836257;29;20017;-65
2023/04/17 12:43:33;;;;;;;;;;;19.30;96.00;;;;;;4831399;29;19917;-65
2023/04/17 12:45:59;;;;;;;;;;;19.10;96.80;;;;;;4833721;29;19979;-63
2023/04/17 12:48:24;;;;;;;;;;;19.10;96.10;;;;;;4836879;29;19927;-63
2023/04/17 12:50:50;;;;;;;;;;;19.30;95.70;;;;;;4809777;29;19918;-64
2023/04/17 12:53:16;;;;;;;;;;;19.40;94.50;;;;;;4829504;29;20469;-62
2023/04/17 12:55:42;;;;;;;;;;;19.60;95.30;;;;;;4832300;29;19920;-62
2023/04/17 12:58:09;;;;;;;;;;;19.80;96.80;;;;;;4823237;29;19916;-62
2023/04/17 13:00:36;;;;;;;;;;;19.90;94.60;;;;;;4830503;29;20094;-62
2023/04/17 13:03:02;;;;;;;;;;;19.90;93.50;;;;;;4834160;29;19924;-63
2023/04/17 13:05:28;;;;;;;;;;;20.00;93.50;;;;;;4838089;29;20220;-66
2023/04/17 13:07:54;;;;;;;;;;;20.10;93.20;;;;;;4830715;29;20060;-63
2023/04/17 13:10:20;;;;;;;;;;;20.10;88.50;;;;;;4834358;29;19976;-65
2023/04/17 13:12:45;;;;;;;;;;;19.90;92.70;;;;;;4826511;29;20009;-65
2023/04/17 13:15:14;;;;;;;;;;;19.90;93.30;;;;;;4832947;29;19985;-65
2023/04/17 13:17:40;;;;;;;;;;;19.90;90.70;;;;;;4838408;29;19915;-65
2023/04/17 13:20:06;;;;;;;;;;;19.90;90.90;;;;;;4833062;29;20514;-65
2023/04/17 13:22:31;;;;;;;;;;;20.10;91.70;;;;;;4838235;29;19916;-64
2023/04/17 13:25:01;;;;;;;;;;;20.10;88.20;;;;;;4838375;29;19922;-64
2023/04/17 13:27:26;;;;;;;;;;;20.10;91.30;;;;;;4829791;29;20300;-64
2023/04/17 13:29:53;;;;;;;;;;;20.20;90.30;;;;;;4837243;29;19920;-63
2023/04/17 13:32:18;;;;;;;;;;;20.10;85.10;;;;;;4836037;29;19920;-63
2023/04/17 13:34:45;;;;;;;;;;;20.00;85.80;;;;;;4834766;29;20454;-63
2023/04/17 13:37:13;;;;;;;;;;;19.90;88.30;;;;;;4834565;29;20292;-64
2023/04/17 13:39:39;;;;;;;;;;;19.90;88.00;;;;;;4834802;29;19924;-64
2023/04/17 13:42:04;;;;;;;;;;;19.70;89.30;;;;;;4838281;29;20079;-65
2023/04/17 13:44:31;;;;;;;;;;;19.70;88.00;;;;;;4834537;29;19981;-65
2023/04/17 13:46:56;;;;;;;;;;;19.50;87.30;;;;;;4831788;29;19923;-67
2023/04/17 13:49:22;;;;;;;;;;;19.40;90.70;;;;;;4828986;29;20018;-65
2023/04/17 13:51:47;;;;;;;;;;;19.30;91.10;;;;;;4838628;29;19928;-65
2023/04/17 13:54:13;;;;;;;;;;;19.30;91.60;;;;;;4839012;29;19984;-65
2023/04/17 13:56:39;;;;;;;;;;;19.30;92.10;;;;;;4823976;29;20058;-64
2023/04/17 13:59:05;;;;;;;;;;;19.20;91.10;;;;;;4830744;29;19920;-64
2023/04/17 14:01:31;;;;;;;;;;;19.20;91.30;;;;;;4832586;29;19916;-64
2023/04/17 14:03:59;;;;;;;;;;;19.10;92.50;;;;;;4827987;29;19915;-65
2023/04/17 14:06:26;;;;;;;;;;;19.00;93.30;;;;;;4842021;29;19916;-64
2023/04/17 14:08:52;;;;;;;;;;;18.80;93.90;;;;;;4839867;29;19916;-64
2023/04/17 14:11:18;;;;;;;;;;;18.70;93.60;;;;;;4842621;29;19941;-64
2023/04/17 14:13:44;;;;;;;;;;;18.50;94.50;;;;;;4838693;29;19919;-64